createdAt,value
2023-03-11T00:00:32.467Z,13.69
2023-03-11T00:03:01.641Z,13.66
2023-03-11T00:05:35.164Z,13.77
2023-03-11T00:08:04.345Z,13.76
2023-03-11T00:10:38.998Z,13.75
2023-03-11T00:13:08.566Z,13.66
2023-03-11T00:15:36.630Z,13.67
2023-03-11T00:18:03.985Z,13.68
2023-03-11T00:20:34.275Z,13.77
2023-03-11T00:23:01.845Z,13.61
2023-03-11T00:25:31.704Z,13.53
2023-03-11T00:27:59.436Z,13.33
2023-03-11T00:30:27.148Z,13.33
2023-03-11T00:32:56.663Z,13.33
2023-03-11T00:35:26.326Z,13.49
2023-03-11T00:37:55.784Z,13.33
2023-03-11T00:40:25.154Z,13.18
2023-03-11T00:42:52.998Z,13.17
2023-03-11T00:45:21.372Z,13.16
2023-03-11T00:47:48.510Z,13.18
2023-03-11T00:50:19.357Z,13.26
2023-03-11T00:52:47.668Z,13.34
2023-03-11T00:55:17.716Z,13.20
2023-03-11T00:57:46.001Z,13.14
2023-03-11T01:00:19.224Z,13.18
2023-03-11T01:02:46.605Z,13.15
2023-03-11T01:05:14.750Z,13.22
2023-03-11T01:07:42.176Z,13.19
2023-03-11T01:10:10.559Z,13.08
2023-03-11T01:12:37.634Z,13.14
2023-03-11T01:15:06.044Z,13.20
2023-03-11T01:17:33.205Z,13.43
2023-03-11T01:20:00.238Z,13.68
2023-03-11T01:22:27.367Z,13.59
2023-03-11T01:24:55.160Z,13.66
2023-03-11T01:27:22.446Z,13.64
2023-03-11T01:29:49.489Z,13.56
2023-03-11T01:32:16.665Z,13.77
2023-03-11T01:34:43.837Z,13.91
2023-03-11T01:37:11.044Z,13.59
2023-03-11T01:39:38.233Z,13.52
2023-03-11T01:42:05.761Z,13.64
2023-03-11T01:44:33.650Z,13.86
2023-03-11T01:47:02.253Z,13.87
2023-03-11T01:49:32.911Z,13.92
2023-03-11T01:52:08.028Z,13.64
2023-03-11T01:54:42.158Z,13.63
2023-03-11T01:57:13.343Z,13.81
2023-03-11T01:59:47.407Z,13.95
2023-03-11T02:02:29.612Z,14.03
2023-03-11T02:04:57.506Z,14.02
2023-03-11T02:07:24.805Z,13.78
2023-03-11T02:09:52.324Z,13.86
2023-03-11T02:12:20.202Z,13.95
2023-03-11T02:14:51.582Z,13.86
2023-03-11T02:17:18.898Z,13.76
2023-03-11T02:19:45.987Z,13.80
2023-03-11T02:22:14.423Z,13.61
2023-03-11T02:24:48.757Z,13.63
2023-03-11T02:27:18.705Z,13.62
2023-03-11T02:29:50.254Z,13.87
2023-03-11T02:32:19.696Z,13.87
2023-03-11T02:34:47.269Z,13.69
2023-03-11T02:37:17.061Z,13.72
2023-03-11T02:39:53.165Z,13.69
2023-03-11T02:42:25.239Z,13.75
2023-03-11T02:45:10.905Z,13.86
2023-03-11T02:47:40.565Z,13.93
2023-03-11T02:50:13.831Z,13.77
2023-03-11T02:52:41.139Z,13.75
2023-03-11T02:55:10.229Z,13.71
2023-03-11T02:57:37.754Z,13.92
2023-03-11T03:00:13.432Z,13.63
2023-03-11T03:02:44.548Z,13.91
2023-03-11T03:05:11.984Z,13.83
2023-03-11T03:07:39.436Z,13.79
2023-03-11T03:10:07.521Z,13.77
2023-03-11T03:12:34.752Z,13.74
2023-03-11T03:15:01.900Z,13.94
2023-03-11T03:17:29.166Z,13.79
2023-03-11T03:19:56.357Z,13.46
2023-03-11T03:22:27.541Z,13.51
2023-03-11T03:24:55.331Z,13.57
2023-03-11T03:27:22.420Z,13.55
2023-03-11T03:29:49.577Z,13.73
2023-03-11T03:32:16.948Z,13.66
2023-03-11T03:34:44.026Z,13.55
2023-03-11T03:37:11.115Z,13.46
2023-03-11T03:39:38.410Z,13.62
2023-03-11T03:42:06.727Z,13.66
2023-03-11T03:44:39.561Z,13.70
2023-03-11T03:47:07.601Z,13.45
2023-03-11T03:49:35.075Z,13.31
2023-03-11T03:52:02.712Z,13.22
2023-03-11T03:54:32.223Z,13.19
2023-03-11T03:56:59.311Z,13.36
2023-03-11T03:59:26.406Z,13.33
2023-03-11T04:01:58.103Z,13.14
2023-03-11T04:04:27.056Z,13.02
2023-03-11T04:06:54.885Z,13.12
2023-03-11T04:09:22.092Z,13.10
2023-03-11T04:11:49.299Z,13.26
2023-03-11T04:14:18.149Z,13.22
2023-03-11T04:16:53.200Z,13.13
2023-03-11T04:19:20.601Z,13.03
2023-03-11T04:21:47.880Z,12.99
2023-03-11T04:24:15.278Z,13.02
2023-03-11T04:26:43.164Z,13.20
2023-03-11T04:29:14.386Z,13.21
2023-03-11T04:31:47.460Z,12.98
2023-03-11T04:34:14.862Z,13.04
2023-03-11T04:36:42.269Z,12.91
2023-03-11T04:39:12.418Z,12.95
2023-03-11T04:41:43.053Z,13.15
2023-03-11T04:44:14.018Z,13.21
2023-03-11T04:46:41.272Z,12.97
2023-03-11T04:49:10.458Z,12.91
2023-03-11T04:51:38.079Z,12.99
2023-03-11T04:54:06.549Z,12.90
2023-03-11T04:56:34.126Z,13.12
2023-03-11T04:59:01.583Z,13.12
2023-03-11T05:01:31.243Z,12.89
2023-03-11T05:04:01.792Z,12.80
2023-03-11T05:06:29.251Z,12.74
2023-03-11T05:08:56.547Z,12.81
2023-03-11T05:11:24.244Z,12.86
2023-03-11T05:13:51.962Z,12.74
2023-03-11T05:16:20.374Z,12.54
2023-03-11T05:18:47.658Z,12.66
2023-03-11T05:21:16.125Z,12.59
2023-03-11T05:23:45.464Z,12.80
2023-03-11T05:26:14.572Z,12.93
2023-03-11T05:28:43.855Z,12.86
2023-03-11T05:31:11.640Z,12.83
2023-03-11T05:33:39.412Z,12.81
2023-03-11T05:36:10.852Z,12.63
2023-03-11T05:38:41.555Z,12.92
2023-03-11T05:41:09.171Z,12.87
2023-03-11T05:43:36.909Z,12.80
2023-03-11T05:46:04.322Z,12.78
2023-03-11T05:48:32.232Z,13.07
2023-03-11T05:51:00.072Z,13.13
2023-03-11T05:53:27.340Z,13.40
2023-03-11T05:55:58.400Z,13.48
2023-03-11T05:58:28.401Z,13.28
2023-03-11T06:00:55.821Z,13.14
2023-03-11T06:03:23.356Z,13.24
2023-03-11T06:05:51.194Z,13.33
2023-03-11T06:08:20.487Z,13.63
2023-03-11T06:10:48.979Z,13.56
2023-03-11T06:13:17.969Z,13.38
2023-03-11T06:15:51.161Z,13.41
2023-03-11T06:18:19.956Z,13.45
2023-03-11T06:20:47.093Z,13.46
2023-03-11T06:23:14.229Z,13.61
2023-03-11T06:25:41.495Z,13.75
2023-03-11T06:28:10.028Z,13.57
2023-03-11T06:30:38.121Z,13.48
2023-03-11T06:33:09.839Z,13.50
2023-03-11T06:35:37.037Z,13.63
2023-03-11T06:38:04.151Z,13.83
2023-03-11T06:40:31.877Z,13.75
2023-03-11T06:42:59.185Z,13.88
2023-03-11T06:45:29.062Z,13.70
2023-03-11T06:47:56.900Z,13.64
2023-03-11T06:50:24.234Z,13.93
2023-03-11T06:52:53.677Z,13.91
2023-03-11T06:55:21.349Z,13.87
2023-03-11T06:57:48.529Z,13.83
2023-03-11T07:00:16.671Z,14.01
2023-03-11T07:02:49.507Z,13.93
2023-03-11T07:05:18.253Z,14.16
2023-03-11T07:07:46.851Z,14.11
2023-03-11T07:10:14.637Z,14.08
2023-03-11T07:12:41.957Z,14.10
2023-03-11T07:15:09.883Z,14.13
2023-03-11T07:17:37.156Z,14.36
2023-03-11T07:20:04.857Z,14.71
2023-03-11T07:22:31.948Z,14.85
2023-03-11T07:24:59.118Z,14.70
2023-03-11T07:27:28.394Z,14.77
2023-03-11T07:29:55.483Z,14.70
2023-03-11T07:32:22.611Z,14.61
2023-03-11T07:34:49.773Z,14.98
2023-03-11T07:37:16.895Z,14.83
2023-03-11T07:39:43.979Z,15.01
2023-03-11T07:42:11.131Z,15.23
2023-03-11T07:44:39.373Z,15.37
2023-03-11T07:47:06.685Z,15.42
2023-03-11T07:49:36.090Z,15.39
2023-03-11T07:52:03.220Z,15.46
2023-03-11T07:54:30.391Z,15.20
2023-03-11T07:56:57.452Z,15.18
2023-03-11T07:59:24.574Z,15.12
2023-03-11T08:01:51.867Z,15.27
2023-03-11T08:04:18.944Z,15.32
2023-03-11T08:06:47.807Z,15.41
2023-03-11T08:09:15.318Z,15.70
2023-03-11T08:11:42.626Z,16.22
2023-03-11T08:14:09.791Z,16.31
2023-03-11T08:16:39.353Z,16.36
2023-03-11T08:19:06.454Z,16.47
2023-03-11T08:21:33.651Z,16.35
2023-03-11T08:24:02.614Z,16.58
2023-03-11T08:26:31.277Z,16.79
2023-03-11T08:28:59.472Z,16.62
2023-03-11T08:31:29.868Z,16.81
2023-03-11T08:34:01.033Z,16.61
2023-03-11T08:36:28.677Z,16.59
2023-03-11T08:38:55.786Z,16.57
2023-03-11T08:41:22.992Z,16.60
2023-03-11T08:43:52.343Z,16.74
2023-03-11T08:46:27.391Z,16.75
2023-03-11T08:48:55.185Z,16.66
2023-03-11T08:51:23.710Z,16.82
2023-03-11T08:53:52.044Z,16.61
2023-03-11T08:56:19.689Z,16.73
2023-03-11T08:58:47.348Z,16.81
2023-03-11T09:01:14.512Z,16.88
2023-03-11T09:03:41.559Z,16.23
2023-03-11T09:06:13.877Z,15.36
2023-03-11T09:08:41.474Z,14.05
2023-03-11T09:11:09.454Z,13.48
2023-03-11T09:13:36.614Z,13.09
2023-03-11T09:16:06.033Z,12.67
2023-03-11T09:18:33.185Z,12.31
2023-03-11T09:21:01.294Z,12.20
2023-03-11T09:23:28.441Z,11.90
2023-03-11T09:25:55.523Z,12.00
2023-03-11T09:28:22.798Z,11.85
2023-03-11T09:30:49.919Z,11.71
2023-03-11T09:33:17.283Z,11.67
2023-03-11T09:35:45.014Z,11.67
2023-03-11T09:38:12.145Z,11.64
2023-03-11T09:41:04.462Z,11.65
2023-03-11T09:43:54.543Z,11.72
2023-03-11T10:17:34.161Z,12.26
2023-03-11T10:20:16.165Z,12.48
2023-03-11T10:23:01.821Z,12.58
2023-03-11T10:25:51.434Z,12.56
2023-03-11T10:28:21.048Z,11.94
2023-03-11T10:30:49.652Z,12.07
2023-03-11T10:33:29.496Z,12.24
2023-03-11T10:36:00.760Z,12.24
2023-03-11T10:38:32.865Z,12.28
2023-03-11T10:41:05.209Z,12.05
2023-03-11T10:43:39.073Z,12.03
2023-03-11T10:46:17.467Z,12.22
2023-03-11T10:48:44.612Z,12.31
2023-03-11T10:51:22.909Z,12.54
2023-03-11T10:53:59.824Z,12.80
2023-03-11T10:56:31.701Z,12.73
2023-03-11T10:59:00.164Z,12.87
2023-03-11T11:01:29.089Z,12.82
2023-03-11T11:04:01.032Z,12.93
2023-03-11T11:06:36.397Z,12.94
2023-03-11T11:09:26.855Z,13.04
2023-03-11T11:12:12.019Z,13.11
2023-03-11T11:14:51.325Z,13.20
2023-03-11T11:17:21.244Z,13.61
2023-03-11T11:19:49.682Z,13.78
2023-03-11T11:22:19.447Z,13.90
2023-03-11T11:24:48.756Z,13.86
2023-03-11T11:27:28.056Z,13.79
2023-03-11T11:30:21.679Z,13.69
2023-03-11T11:32:49.313Z,13.79
2023-03-11T11:35:17.835Z,13.70
2023-03-11T11:37:51.677Z,13.66
2023-03-11T11:40:26.482Z,13.86
2023-03-11T11:43:05.275Z,13.75
2023-03-11T11:45:41.383Z,13.79
2023-03-11T11:48:49.986Z,13.71
2023-03-11T11:51:43.112Z,14.14
2023-03-11T11:54:31.380Z,14.15
2023-03-11T11:56:58.885Z,13.67
2023-03-11T11:59:27.151Z,13.58
2023-03-11T12:02:11.893Z,13.99
2023-03-11T12:04:45.833Z,13.66
2023-03-11T12:07:24.998Z,13.75
2023-03-11T12:10:21.632Z,13.59
2023-03-11T12:13:22.438Z,13.51
2023-03-11T12:16:12.818Z,13.88
2023-03-11T12:19:01.860Z,14.12
2023-03-11T12:21:58.213Z,14.18
2023-03-11T12:24:42.885Z,14.01
2023-03-11T12:27:34.135Z,14.17
2023-03-11T12:30:16.922Z,14.09
2023-03-11T12:32:57.728Z,14.37
2023-03-11T12:35:28.042Z,14.46
2023-03-11T12:38:13.310Z,14.27
2023-03-11T12:40:42.832Z,14.00
2023-03-11T12:43:35.905Z,14.20
2023-03-11T12:46:05.218Z,14.10
2023-03-11T12:48:35.197Z,14.10
2023-03-11T12:51:02.749Z,14.03
2023-03-11T12:53:48.093Z,13.75
2023-03-11T12:56:34.817Z,13.76
2023-03-11T12:59:35.360Z,13.78
2023-03-11T13:02:20.667Z,13.74
2023-03-11T13:05:15.533Z,13.73
2023-03-11T13:07:52.798Z,13.51
2023-03-11T13:10:34.910Z,13.51
2023-03-11T13:13:02.734Z,13.43
2023-03-11T13:15:34.905Z,13.45
2023-03-11T13:18:12.730Z,13.55
2023-03-11T13:20:41.576Z,13.24
2023-03-11T13:23:14.748Z,13.33
2023-03-11T13:25:47.975Z,13.21
2023-03-11T13:28:47.404Z,13.26
2023-03-11T13:31:18.010Z,13.18
2023-03-11T13:34:00.096Z,13.13
2023-03-11T13:36:46.719Z,13.07
2023-03-11T13:39:46.010Z,13.18
2023-03-11T13:42:38.405Z,13.21
2023-03-11T13:45:08.338Z,12.96
2023-03-11T13:47:37.006Z,12.95
2023-03-11T13:50:10.425Z,12.80
2023-03-11T13:52:43.967Z,12.88
2023-03-11T13:55:31.270Z,13.03
2023-03-11T13:57:58.956Z,13.08
2023-03-11T14:00:29.365Z,13.10
2023-03-11T14:02:59.307Z,13.18
2023-03-11T14:05:35.157Z,13.12
2023-03-11T14:08:20.720Z,13.32
2023-03-11T14:10:58.337Z,13.50
2023-03-11T14:13:28.607Z,13.59
2023-03-11T14:16:10.144Z,13.66
2023-03-11T14:18:39.882Z,13.81
2023-03-11T14:21:16.616Z,13.69
2023-03-11T14:23:52.426Z,13.47
2023-03-11T14:26:31.540Z,13.61
2023-03-11T14:29:11.500Z,13.60
2023-03-11T14:31:41.612Z,13.53
2023-03-11T14:34:11.374Z,13.68
2023-03-11T14:36:57.265Z,13.73
2023-03-11T14:39:33.063Z,13.55
2023-03-11T14:42:20.335Z,13.53
2023-03-11T14:44:53.375Z,13.93
2023-03-11T14:47:54.331Z,13.85
2023-03-11T14:50:25.803Z,13.37
2023-03-11T14:53:02.463Z,13.65
2023-03-11T14:55:55.200Z,13.88
2023-03-11T14:58:34.717Z,14.01
2023-03-11T15:01:12.121Z,14.10
2023-03-11T15:03:50.805Z,14.41
2023-03-11T15:06:21.360Z,14.22
2023-03-11T15:08:58.579Z,13.83
2023-03-11T15:11:28.474Z,13.88
2023-03-11T15:14:17.238Z,13.59
2023-03-11T15:16:44.650Z,13.57
2023-03-11T15:19:29.674Z,13.23
2023-03-11T15:22:21.693Z,13.23
2023-03-11T15:24:57.939Z,13.31
2023-03-11T15:27:30.264Z,13.43
2023-03-11T15:29:58.596Z,13.42
2023-03-11T15:32:29.975Z,13.25
2023-03-11T15:35:10.742Z,13.36
2023-03-11T15:37:38.919Z,13.49
2023-03-11T15:40:44.930Z,13.52
2023-03-11T15:43:15.544Z,13.55
2023-03-11T15:45:44.252Z,13.77
2023-03-11T15:48:12.342Z,13.71
2023-03-11T15:50:54.806Z,13.55
2023-03-11T15:53:24.508Z,13.64
2023-03-11T15:55:53.744Z,13.82
2023-03-11T15:58:21.865Z,13.97
2023-03-11T16:00:56.148Z,13.99
2023-03-11T16:03:24.370Z,13.75
2023-03-11T16:05:51.478Z,13.87
2023-03-11T16:08:18.523Z,13.74
2023-03-11T16:10:45.580Z,13.64
2023-03-11T16:13:14.542Z,13.58
2023-03-11T16:15:42.527Z,13.41
2023-03-11T16:18:10.345Z,13.42
2023-03-11T16:20:50.061Z,13.60
2023-03-11T16:23:36.170Z,13.52
2023-03-11T16:26:11.087Z,13.53
2023-03-11T16:28:38.831Z,13.44
2023-03-11T16:31:08.035Z,13.20
2023-03-11T16:33:38.402Z,12.78
2023-03-11T16:36:06.142Z,12.79
2023-03-11T16:38:45.444Z,12.68
2023-03-11T16:41:12.696Z,12.83
2023-03-11T16:43:39.749Z,12.98
2023-03-11T16:46:06.897Z,12.68
2023-03-11T16:48:34.099Z,12.63
2023-03-11T16:51:01.652Z,12.64
2023-03-11T16:53:28.887Z,12.73
2023-03-11T16:55:56.410Z,12.84
2023-03-11T16:58:23.553Z,12.73
2023-03-11T17:00:50.654Z,12.36
2023-03-11T17:03:21.600Z,12.63
2023-03-11T17:05:49.421Z,12.74
2023-03-11T17:08:18.394Z,12.60
2023-03-11T17:10:46.404Z,12.70
2023-03-11T17:13:15.966Z,12.38
2023-03-11T17:15:45.903Z,12.06
2023-03-11T17:18:13.695Z,12.03
2023-03-11T17:20:43.629Z,12.11
2023-03-11T17:23:10.810Z,11.99
2023-03-11T17:25:41.706Z,11.88
2023-03-11T17:28:09.373Z,11.75
2023-03-11T17:30:37.629Z,11.70
2023-03-11T17:33:05.171Z,11.57
2023-03-11T17:35:32.369Z,11.70
2023-03-11T17:37:59.743Z,11.59
2023-03-11T17:40:29.385Z,11.17
2023-03-11T17:42:56.594Z,10.94
2023-03-11T17:45:23.650Z,10.71
2023-03-11T17:47:50.891Z,10.74
2023-03-11T17:50:18.340Z,10.90
2023-03-11T17:52:47.133Z,10.95
2023-03-11T17:55:14.260Z,10.99
2023-03-11T17:57:45.555Z,10.65
2023-03-11T18:00:15.104Z,10.55
2023-03-11T18:02:42.788Z,10.76
2023-03-11T18:05:10.502Z,10.81
2023-03-11T18:07:41.244Z,10.93
2023-03-11T18:10:09.705Z,10.75
2023-03-11T18:12:37.047Z,10.60
2023-03-11T18:15:07.421Z,10.62
2023-03-11T18:17:37.623Z,10.63
2023-03-11T18:20:05.646Z,10.59
2023-03-11T18:22:35.285Z,10.51
2023-03-11T18:25:02.627Z,10.43
2023-03-11T18:27:29.748Z,10.20
2023-03-11T18:29:56.868Z,10.29
2023-03-11T18:32:24.831Z,10.34
2023-03-11T18:34:52.344Z,10.34
2023-03-11T18:37:19.546Z,10.24
2023-03-11T18:39:46.621Z,10.08
2023-03-11T18:42:16.054Z,10.11
2023-03-11T18:44:43.183Z,10.02
2023-03-11T18:47:10.374Z,10.00
2023-03-11T18:49:37.456Z,9.95
2023-03-11T18:52:04.745Z,9.92
2023-03-11T18:54:32.256Z,9.73
2023-03-11T18:56:59.410Z,9.62
2023-03-11T18:59:27.929Z,9.48
2023-03-11T19:01:55.522Z,9.51
2023-03-11T19:04:22.870Z,9.44
2023-03-11T19:06:50.433Z,9.42
2023-03-11T19:09:21.062Z,9.27
2023-03-11T19:11:48.227Z,9.40
2023-03-11T19:14:15.953Z,9.24
2023-03-11T19:16:43.169Z,9.22
2023-03-11T19:19:11.930Z,9.43
2023-03-11T19:21:39.345Z,9.46
2023-03-11T19:24:06.703Z,9.39
2023-03-11T19:26:44.868Z,9.42
2023-03-11T19:29:14.301Z,9.46
2023-03-11T19:31:43.751Z,9.55
2023-03-11T19:34:11.338Z,9.68
2023-03-11T19:36:39.387Z,9.67
2023-03-11T19:39:07.030Z,9.47
2023-03-11T19:41:34.179Z,9.29
2023-03-11T19:44:01.637Z,9.40
2023-03-11T19:46:29.941Z,9.45
2023-03-11T19:48:57.184Z,9.40
2023-03-11T19:51:25.418Z,9.39
2023-03-11T19:53:55.572Z,9.25
2023-03-11T19:56:22.793Z,9.27
2023-03-11T19:58:50.117Z,9.24
2023-03-11T20:01:21.609Z,9.13
2023-03-11T20:03:48.763Z,9.02
2023-03-11T20:06:18.619Z,8.91
2023-03-11T20:08:45.898Z,8.62
2023-03-11T20:11:13.174Z,8.50
2023-03-11T20:13:42.786Z,8.45
2023-03-11T20:16:18.531Z,8.30
2023-03-11T20:18:50.367Z,8.09
2023-03-11T20:21:17.773Z,7.81
2023-03-11T20:23:44.875Z,7.62
2023-03-11T20:26:14.980Z,7.34
2023-03-11T20:28:42.718Z,7.37
2023-03-11T20:31:24.721Z,7.21
2023-03-11T20:33:53.457Z,7.31
2023-03-11T20:36:27.050Z,7.06
2023-03-11T20:38:55.429Z,6.96
2023-03-11T20:41:24.036Z,7.07
2023-03-11T20:43:56.759Z,7.03
2023-03-11T20:46:24.076Z,6.97
2023-03-11T20:48:51.368Z,6.95
2023-03-11T20:51:20.751Z,6.70
2023-03-11T20:53:49.164Z,6.57
2023-03-11T20:56:20.264Z,6.66
2023-03-11T20:58:51.054Z,6.63
2023-03-11T21:01:28.008Z,6.54
2023-03-11T21:03:58.450Z,6.40
2023-03-11T21:06:29.209Z,6.22
2023-03-11T21:08:59.143Z,6.09
2023-03-11T21:11:26.929Z,6.06
2023-03-11T21:13:54.904Z,6.09
2023-03-11T21:16:23.029Z,6.10
2023-03-11T21:18:50.460Z,6.09
2023-03-11T21:21:18.411Z,5.91
2023-03-11T21:23:48.226Z,5.80
2023-03-11T21:26:17.037Z,5.80
2023-03-11T21:28:47.069Z,5.89
2023-03-11T21:31:18.557Z,5.84
2023-03-11T21:33:46.114Z,5.79
2023-03-11T21:36:15.845Z,5.75
2023-03-11T21:38:43.142Z,5.63
2023-03-11T21:41:13.321Z,5.80
2023-03-11T21:43:44.614Z,5.85
2023-03-11T21:46:15.476Z,5.67
2023-03-11T21:48:43.416Z,5.42
2023-03-11T21:51:10.839Z,5.30
2023-03-11T21:53:38.179Z,5.19
2023-03-11T21:56:06.268Z,5.20
2023-03-11T21:58:33.880Z,5.17
2023-03-11T22:01:01.474Z,5.25
2023-03-11T22:03:29.107Z,5.13
2023-03-11T22:06:00.381Z,5.11
2023-03-11T22:08:27.929Z,5.10
2023-03-11T22:10:55.414Z,5.08
2023-03-11T22:13:23.961Z,5.10
2023-03-11T22:15:51.645Z,5.05
2023-03-11T22:18:18.932Z,4.91
2023-03-11T22:20:46.129Z,4.85
2023-03-11T22:23:13.314Z,4.75
2023-03-11T22:25:40.498Z,4.80
2023-03-11T22:28:10.488Z,4.87
2023-03-11T22:30:37.677Z,4.82
2023-03-11T22:33:04.803Z,4.71
2023-03-11T22:35:31.973Z,4.67
2023-03-11T22:37:59.154Z,4.62
2023-03-11T22:40:27.055Z,4.61
2023-03-11T22:42:54.198Z,4.68
2023-03-11T22:45:22.477Z,4.68
2023-03-11T22:47:50.540Z,4.50
2023-03-11T22:50:19.115Z,4.46
2023-03-11T22:52:46.274Z,4.42
2023-03-11T22:55:13.320Z,4.44
2023-03-11T22:57:40.441Z,4.49
2023-03-11T23:00:17.224Z,4.55
2023-03-11T23:02:49.458Z,4.45
2023-03-11T23:05:16.668Z,4.36
2023-03-11T23:07:43.768Z,4.53
2023-03-11T23:10:12.965Z,4.59
2023-03-11T23:12:40.505Z,4.61
2023-03-11T23:15:11.073Z,4.59
2023-03-11T23:17:38.697Z,4.30
2023-03-11T23:20:07.955Z,4.20
2023-03-11T23:22:37.170Z,4.19
2023-03-11T23:25:06.419Z,4.16
2023-03-11T23:27:33.536Z,4.25
2023-03-11T23:30:00.754Z,4.16
2023-03-11T23:32:28.514Z,4.06
2023-03-11T23:34:55.668Z,4.02
2023-03-11T23:37:23.827Z,4.10
2023-03-11T23:39:50.926Z,4.08
2023-03-11T23:42:25.498Z,4.05
2023-03-11T23:44:53.397Z,4.03
2023-03-11T23:47:20.661Z,4.01
2023-03-11T23:49:47.778Z,3.95
2023-03-11T23:52:15.123Z,4.04
2023-03-11T23:54:42.396Z,4.01
2023-03-11T23:57:09.447Z,4.07
2023-03-11T23:59:36.554Z,3.92
